Pagina principale
METAR-TAF:

METAR-TAF

Aeroporti :

Aeroporto di Alghero-Fertilia

Alghero, Italia

latitudine: 40-38N, longitudine: 008-17E, altezza: 23 m

Osservazione

Il bollettino è stato emesso 40 minuti fa, alle 12:50 UTC
Vento 9 kt da ovest, variando fra ovest e nord-ovest
Temperature 27°C
Umidità 66%
Pressione 1018 hPa
Visibilità 10 km o più
Poco nuvoloso ad un'altezza di 2000 ft

METAR: LIEA 271250Z 28009KT 260V320 9999 FEW020 27/20 Q1018

Ora: 15:30 (13:30 UTC)

Previsione

Il bollettino è stato emesso 2 ore e 30 minuti fa, alle 11:00 UTC
Previsione valida dal 27 alle 12 UTC al 28 alle 12 UTC
Vento 13 kt da ovest/nord-ovest
Visibilità 10 km o più
Nubi sparse ad un'altezza di 4000 ft
Evoluzione graduale
dal 27 alle 17 UTC al 27 alle 19 UTC
Vento 5 kt da direzioni variabili

TAF: LIEA 271100Z 2712/2812 30013KT 9999 SCT040 BECMG 2717/2719 VRB05KT

Osservazioni e previsioni meteorologiche di più di 4000 aeroporti (messaggi METAR e TAF).

Le stazioni disponibili sono rappresentate dai dischi gialli e rossi sulla carta.

Puntare il mouse per vedere il nome della stazione.

Clicca sopra per visualizzare le osservazioni e previsioni meteorologiche.

Per cambiare la mappa : fare clic sui pulsanti verdi con una croce nera per ingrandire, il pulsante verde con un trattino per diminuire, o sulla freccia verde per le mappe adiacenti.


METAR-TAF: